Itaiba, Brazil
Current Conditions -  °F | °C
As of 6:00 PM on Monday 24 Nov 2014 (Local Time) from SBMO Reporting Station
Scattered Clouds Scattered Clouds  
Wind Chill: 79°   Ceiling: Unl
Heat Index: 82°   Visibility: 6mi
Dew Point: 75°   Wind: 10mph
Humidity: 89%   Direction: 100°E
Pressure: 29.91"   Gusts: NA
Location:  8.95°S, 37.42°W
Report Text: SBMO 242100Z 10009KT 9999 SCT017 26/24 Q1013
Loading
Personal Weather Stations






























Interactive Weather Map New forecast layout! Learn more

10-Day Weather Forecast

Advertisements
Track Severe Weather on mobile